Dayton, OH (45402)

5:47 AM EST on December 10, 2016 (GMT -0500)
Oregon Historic District | | Change Station

Elev 0 ft 39.75 °N, 84.18 °W | Updated 28 seconds ago

Overcast
Overcast
24.3 °F
Feels Like 24 °F
N
1.1
Wind Variable Wind from SSW
Gusts 2.5 mph

Today
High -- | Low -- °F
--% Chance of Precip.
Yesterday
High -- | Low -- °F
Precip. -- in
Pressure 30.55 in
Visibility 7.0 miles
Clouds Few 2300 ft
Overcast 3200 ft
Windchill 24 °F
Dew Point 16 °F
Humidity 69%
Rainfall 0.00 in
Snow Depth Not available.
7:47 AM 5:12 PM
Waxing Gibbous, 82% visible
METAR KFFO 100958Z 23006KT 7SM -SN FEW023 OVC032 M05/M07 A3050 RMK AO2A SLP344 P0000 T10521069
Pressure 30.55 in
Visibility 7.0 miles
Clouds Few 2300 ft
Overcast 3200 ft
Windchill 24 °F
Dew Point 16 °F
Humidity 69%
Rainfall 0.00 in
Snow Depth Not available.
7:47 AM 5:12 PM
Waxing Gibbous, 82% visible
METAR KFFO 100958Z 23006KT 7SM -SN FEW023 OVC032 M05/M07 A3050 RMK AO2A SLP344 P0000 T10521069

10-Day Weather Forecast

Almanac

Astronomy

Dec. 10, 2016 Rise Set
Actual Time
Civil Twilight
Nautical Twilight
Astronomical Twilight
Moon
Length of Visible Light
Length of Day
Tomorrow will be .
, % of the Moon is Illuminated

Today's Extremes

State Highs State Lows

Community

WunderPhotos

Upload Photos

1,956,536 photos uploaded!

WunderBlog® & News

Nearby

Air Quality

  Air Quality AQ Index Pollutant
Not available.

Snow Depth

Station Depth Elevation

Earthquake Activity

City Distance Mag. Time & Date
Minimum magnitude displayed is 2.5.

Coastal Water Temperatures

Place Temperature

Stations

Nearby Weather Stations

Station Location Temp. Windchill Dew Point Humidity Wind Precip. Elev Updated Type
                   

Watches & Warnings

There are currently no watches in effect.